sensor_id;sensor_type;location;lat;lon;timestamp;temperature;humidity
2929;DHT22;1474;51.460;7.150;2024-02-16T06:23:14;14.20;96.90
2929;DHT22;1474;51.460;7.150;2024-02-16T06:25:42;14.30;96.20
2929;DHT22;1474;51.460;7.150;2024-02-16T06:28:08;14.10;93.00
2929;DHT22;1474;51.460;7.150;2024-02-16T06:30:34;14.00;90.70
2929;DHT22;1474;51.460;7.150;2024-02-16T06:32:59;14.00;90.00
2929;DHT22;1474;51.460;7.150;2024-02-16T06:35:26;14.00;89.30
2929;DHT22;1474;51.460;7.150;2024-02-16T06:37:51;14.00;89.00
2929;DHT22;1474;51.460;7.150;2024-02-16T06:40:17;14.00;88.70
2929;DHT22;1474;51.460;7.150;2024-02-16T06:42:43;14.00;88.80
2929;DHT22;1474;51.460;7.150;2024-02-16T06:45:09;13.90;88.90
2929;DHT22;1474;51.460;7.150;2024-02-16T06:47:34;13.90;89.20
2929;DHT22;1474;51.460;7.150;2024-02-16T06:50:00;13.90;89.30
2929;DHT22;1474;51.460;7.150;2024-02-16T06:52:25;13.90;89.30
2929;DHT22;1474;51.460;7.150;2024-02-16T06:54:51;13.90;89.50
2929;DHT22;1474;51.460;7.150;2024-02-16T06:57:18;13.90;89.50
2929;DHT22;1474;51.460;7.150;2024-02-16T06:59:45;13.90;89.90
2929;DHT22;1474;51.460;7.150;2024-02-16T07:02:10;13.90;89.20
2929;DHT22;1474;51.460;7.150;2024-02-16T07:04:36;13.90;89.50
2929;DHT22;1474;51.460;7.150;2024-02-16T07:07:04;13.80;89.40
2929;DHT22;1474;51.460;7.150;2024-02-16T07:09:32;13.90;89.70
2929;DHT22;1474;51.460;7.150;2024-02-16T07:11:57;13.90;89.70
2929;DHT22;1474;51.460;7.150;2024-02-16T07:14:24;13.90;89.60
2929;DHT22;1474;51.460;7.150;2024-02-16T07:16:49;13.90;89.70
2929;DHT22;1474;51.460;7.150;2024-02-16T07:19:15;14.00;89.50
2929;DHT22;1474;51.460;7.150;2024-02-16T07:21:41;14.00;89.60
2929;DHT22;1474;51.460;7.150;2024-02-16T07:24:06;14.00;89.60
2929;DHT22;1474;51.460;7.150;2024-02-16T07:26:32;14.00;89.40
2929;DHT22;1474;51.460;7.150;2024-02-16T07:28:58;14.00;89.10
2929;DHT22;1474;51.460;7.150;2024-02-16T07:31:24;14.00;89.50
2929;DHT22;1474;51.460;7.150;2024-02-16T07:33:50;14.10;89.10
2929;DHT22;1474;51.460;7.150;2024-02-16T07:36:15;14.10;89.20
2929;DHT22;1474;51.460;7.150;2024-02-16T07:38:43;14.10;89.00
2929;DHT22;1474;51.460;7.150;2024-02-16T07:41:09;14.20;88.90
2929;DHT22;1474;51.460;7.150;2024-02-16T07:43:35;14.20;88.80
2929;DHT22;1474;51.460;7.150;2024-02-16T07:46:00;14.20;88.60
2929;DHT22;1474;51.460;7.150;2024-02-16T07:48:26;14.20;89.00
2929;DHT22;1474;51.460;7.150;2024-02-16T07:50:52;14.30;88.90
2929;DHT22;1474;51.460;7.150;2024-02-16T07:53:17;14.30;89.10
2929;DHT22;1474;51.460;7.150;2024-02-16T07:55:43;14.30;88.70
2929;DHT22;1474;51.460;7.150;2024-02-16T07:58:08;14.30;89.10
2929;DHT22;1474;51.460;7.150;2024-02-16T08:00:34;14.40;88.80
2929;DHT22;1474;51.460;7.150;2024-02-16T08:03:00;14.30;88.80
2929;DHT22;1474;51.460;7.150;2024-02-16T08:05:26;14.30;88.70
2929;DHT22;1474;51.460;7.150;2024-02-16T08:07:52;14.40;89.10
2929;DHT22;1474;51.460;7.150;2024-02-16T08:10:19;14.40;88.50
2929;DHT22;1474;51.460;7.150;2024-02-16T08:12:48;14.50;88.30
2929;DHT22;1474;51.460;7.150;2024-02-16T08:15:14;14.50;88.20
2929;DHT22;1474;51.460;7.150;2024-02-16T08:17:40;14.50;88.80
2929;DHT22;1474;51.460;7.150;2024-02-16T08:20:07;14.50;88.70
2929;DHT22;1474;51.460;7.150;2024-02-16T08:22:32;14.50;88.40
2929;DHT22;1474;51.460;7.150;2024-02-16T08:24:59;14.60;88.50
2929;DHT22;1474;51.460;7.150;2024-02-16T08:27:25;14.60;88.20
2929;DHT22;1474;51.460;7.150;2024-02-16T08:29:51;14.60;88.30
2929;DHT22;1474;51.460;7.150;2024-02-16T08:32:19;14.70;88.40
2929;DHT22;1474;51.460;7.150;2024-02-16T08:34:46;14.70;88.50
2929;DHT22;1474;51.460;7.150;2024-02-16T08:37:14;14.70;88.30
2929;DHT22;1474;51.460;7.150;2024-02-16T08:39:39;14.60;88.10
2929;DHT22;1474;51.460;7.150;2024-02-16T08:42:07;14.60;88.20
2929;DHT22;1474;51.460;7.150;2024-02-16T08:44:34;14.60;88.20
2929;DHT22;1474;51.460;7.150;2024-02-16T08:47:00;14.60;88.50
2929;DHT22;1474;51.460;7.150;2024-02-16T08:49:25;14.60;88.60
2929;DHT22;1474;51.460;7.150;2024-02-16T08:51:51;14.70;88.70
2929;DHT22;1474;51.460;7.150;2024-02-16T08:54:16;14.70;88.50
2929;DHT22;1474;51.460;7.150;2024-02-16T08:56:45;14.70;88.40
2929;DHT22;1474;51.460;7.150;2024-02-16T08:59:11;14.70;88.40
2929;DHT22;1474;51.460;7.150;2024-02-16T09:01:38;14.70;88.60
2929;DHT22;1474;51.460;7.150;2024-02-16T09:04:05;14.80;88.00
2929;DHT22;1474;51.460;7.150;2024-02-16T09:06:30;14.90;88.30
2929;DHT22;1474;51.460;7.150;2024-02-16T09:08:56;14.90;88.00
2929;DHT22;1474;51.460;7.150;2024-02-16T09:11:23;15.00;88.30
2929;DHT22;1474;51.460;7.150;2024-02-16T09:13:49;14.90;88.00
2929;DHT22;1474;51.460;7.150;2024-02-16T09:16:15;15.00;88.30
2929;DHT22;1474;51.460;7.150;2024-02-16T09:18:40;15.10;88.20
2929;DHT22;1474;51.460;7.150;2024-02-16T09:21:06;15.00;88.30
2929;DHT22;1474;51.460;7.150;2024-02-16T09:23:33;15.10;88.50
2929;DHT22;1474;51.460;7.150;2024-02-16T09:25:59;15.10;88.40
2929;DHT22;1474;51.460;7.150;2024-02-16T09:28:25;15.10;87.90
2929;DHT22;1474;51.460;7.150;2024-02-16T09:30:51;15.20;88.20
2929;DHT22;1474;51.460;7.150;2024-02-16T09:33:17;15.20;87.90
2929;DHT22;1474;51.460;7.150;2024-02-16T09:35:43;15.20;88.10
2929;DHT22;1474;51.460;7.150;2024-02-16T09:38:08;15.30;88.30
2929;DHT22;1474;51.460;7.150;2024-02-16T09:40:36;15.30;88.20
2929;DHT22;1474;51.460;7.150;2024-02-16T09:43:02;15.30;88.40
2929;DHT22;1474;51.460;7.150;2024-02-16T09:45:29;15.40;88.50
2929;DHT22;1474;51.460;7.150;2024-02-16T09:47:55;15.40;88.60
2929;DHT22;1474;51.460;7.150;2024-02-16T09:50:22;15.40;88.30
2929;DHT22;1474;51.460;7.150;2024-02-16T09:52:50;15.40;88.40
2929;DHT22;1474;51.460;7.150;2024-02-16T09:55:17;15.50;88.30
2929;DHT22;1474;51.460;7.150;2024-02-16T09:57:43;15.50;88.40
2929;DHT22;1474;51.460;7.150;2024-02-16T10:00:10;15.50;88.40
2929;DHT22;1474;51.460;7.150;2024-02-16T10:02:46;15.50;87.30
2929;DHT22;1474;51.460;7.150;2024-02-16T10:05:21;15.60;87.60
2929;DHT22;1474;51.460;7.150;2024-02-16T10:07:47;15.60;87.40
2929;DHT22;1474;51.460;7.150;2024-02-16T10:12:46;15.60;87.90
2929;DHT22;1474;51.460;7.150;2024-02-16T10:15:18;15.70;88.00
2929;DHT22;1474;51.460;7.150;2024-02-16T10:17:43;15.70;88.00
2929;DHT22;1474;51.460;7.150;2024-02-16T10:20:09;15.70;87.50
2929;DHT22;1474;51.460;7.150;2024-02-16T10:22:36;15.70;88.40
2929;DHT22;1474;51.460;7.150;2024-02-16T10:25:08;15.80;87.70
2929;DHT22;1474;51.460;7.150;2024-02-16T10:27:39;15.70;87.40
2929;DHT22;1474;51.460;7.150;2024-02-16T10:30:08;15.70;87.90
2929;DHT22;1474;51.460;7.150;2024-02-16T10:32:38;15.80;87.30
2929;DHT22;1474;51.460;7.150;2024-02-16T10:35:06;15.70;88.00
2929;DHT22;1474;51.460;7.150;2024-02-16T10:37:34;15.70;88.10
2929;DHT22;1474;51.460;7.150;2024-02-16T10:40:00;15.70;88.30
2929;DHT22;1474;51.460;7.150;2024-02-16T10:42:27;15.80;88.60
2929;DHT22;1474;51.460;7.150;2024-02-16T10:44:55;15.80;88.10
2929;DHT22;1474;51.460;7.150;2024-02-16T10:47:20;15.80;88.50
2929;DHT22;1474;51.460;7.150;2024-02-16T10:49:46;15.80;88.40
2929;DHT22;1474;51.460;7.150;2024-02-16T10:52:13;15.90;88.20
2929;DHT22;1474;51.460;7.150;2024-02-16T10:54:40;15.90;88.10
2929;DHT22;1474;51.460;7.150;2024-02-16T10:57:08;15.90;88.40
2929;DHT22;1474;51.460;7.150;2024-02-16T10:59:44;15.90;89.10
2929;DHT22;1474;51.460;7.150;2024-02-16T11:02:11;16.00;88.30
2929;DHT22;1474;51.460;7.150;2024-02-16T11:04:38;16.10;87.80
2929;DHT22;1474;51.460;7.150;2024-02-16T11:07:19;16.10;87.60
2929;DHT22;1474;51.460;7.150;2024-02-16T11:12:14;16.10;88.80
2929;DHT22;1474;51.460;7.150;2024-02-16T12:06:20;16.00;89.50
2929;DHT22;1474;51.460;7.150;2024-02-16T12:08:46;15.90;91.10
2929;DHT22;1474;51.460;7.150;2024-02-16T12:11:12;15.90;91.10
2929;DHT22;1474;51.460;7.150;2024-02-16T12:13:39;15.90;91.00
2929;DHT22;1474;51.460;7.150;2024-02-16T12:16:05;15.90;91.10
2929;DHT22;1474;51.460;7.150;2024-02-16T12:18:32;15.90;91.20
2929;DHT22;1474;51.460;7.150;2024-02-16T12:21:04;15.90;91.20
2929;DHT22;1474;51.460;7.150;2024-02-16T12:23:35;15.90;91.20
2929;DHT22;1474;51.460;7.150;2024-02-16T12:26:02;15.90;91.20
2929;DHT22;1474;51.460;7.150;2024-02-16T12:28:31;15.80;91.40
2929;DHT22;1474;51.460;7.150;2024-02-16T12:31:00;15.80;91.10
2929;DHT22;1474;51.460;7.150;2024-02-16T12:33:26;15.80;91.30
2929;DHT22;1474;51.460;7.150;2024-02-16T12:35:52;15.80;91.30
2929;DHT22;1474;51.460;7.150;2024-02-16T12:38:18;15.80;91.30
2929;DHT22;1474;51.460;7.150;2024-02-16T12:40:48;15.80;91.30
2929;DHT22;1474;51.460;7.150;2024-02-16T12:43:14;15.80;91.40
2929;DHT22;1474;51.460;7.150;2024-02-16T12:45:41;15.80;91.40
2929;DHT22;1474;51.460;7.150;2024-02-16T12:48:07;15.70;91.30
2929;DHT22;1474;51.460;7.150;2024-02-16T12:50:34;15.70;91.50
2929;DHT22;1474;51.460;7.150;2024-02-16T12:53:00;15.60;91.60
2929;DHT22;1474;51.460;7.150;2024-02-16T12:55:25;15.70;91.60
2929;DHT22;1474;51.460;7.150;2024-02-16T12:57:51;15.70;91.70
2929;DHT22;1474;51.460;7.150;2024-02-16T13:00:17;15.60;91.70
2929;DHT22;1474;51.460;7.150;2024-02-16T13:02:43;15.70;91.60
2929;DHT22;1474;51.460;7.150;2024-02-16T13:05:09;15.60;91.80
2929;DHT22;1474;51.460;7.150;2024-02-16T13:07:36;15.50;91.70
2929;DHT22;1474;51.460;7.150;2024-02-16T13:10:03;15.60;91.90
2929;DHT22;1474;51.460;7.150;2024-02-16T13:12:29;15.50;91.80
2929;DHT22;1474;51.460;7.150;2024-02-16T13:14:55;15.50;92.00
2929;DHT22;1474;51.460;7.150;2024-02-16T13:17:20;15.50;92.20
2929;DHT22;1474;51.460;7.150;2024-02-16T13:19:46;15.50;92.40
2929;DHT22;1474;51.460;7.150;2024-02-16T13:22:11;15.40;92.60
2929;DHT22;1474;51.460;7.150;2024-02-16T13:24:37;15.50;92.70
2929;DHT22;1474;51.460;7.150;2024-02-16T13:27:03;15.50;92.70
2929;DHT22;1474;51.460;7.150;2024-02-16T13:29:33;15.50;92.80
2929;DHT22;1474;51.460;7.150;2024-02-16T13:31:59;15.50;93.10
2929;DHT22;1474;51.460;7.150;2024-02-16T13:34:25;15.50;93.60
2929;DHT22;1474;51.460;7.150;2024-02-16T13:36:52;15.40;93.80
2929;DHT22;1474;51.460;7.150;2024-02-16T13:39:18;15.50;94.10
2929;DHT22;1474;51.460;7.150;2024-02-16T13:41:45;15.40;94.20
2929;DHT22;1474;51.460;7.150;2024-02-16T13:44:13;15.50;94.50
2929;DHT22;1474;51.460;7.150;2024-02-16T13:46:42;15.40;95.00
2929;DHT22;1474;51.460;7.150;2024-02-16T13:49:07;15.40;95.50
2929;DHT22;1474;51.460;7.150;2024-02-16T13:51:33;15.40;95.90
2929;DHT22;1474;51.460;7.150;2024-02-16T13:53:59;15.40;96.20
2929;DHT22;1474;51.460;7.150;2024-02-16T13:56:24;15.30;96.50
2929;DHT22;1474;51.460;7.150;2024-02-16T13:58:50;15.30;96.70
2929;DHT22;1474;51.460;7.150;2024-02-16T14:01:16;15.20;97.00
2929;DHT22;1474;51.460;7.150;2024-02-16T14:03:42;15.10;97.30
2929;DHT22;1474;51.460;7.150;2024-02-16T14:06:09;15.10;97.50
2929;DHT22;1474;51.460;7.150;2024-02-16T14:08:36;15.00;97.60
2929;DHT22;1474;51.460;7.150;2024-02-16T14:11:01;15.00;97.90
2929;DHT22;1474;51.460;7.150;2024-02-16T14:13:27;14.90;98.10
2929;DHT22;1474;51.460;7.150;2024-02-16T14:15:54;14.90;98.10
2929;DHT22;1474;51.460;7.150;2024-02-16T14:18:20;15.00;98.20
2929;DHT22;1474;51.460;7.150;2024-02-16T14:20:45;14.90;98.30
2929;DHT22;1474;51.460;7.150;2024-02-16T14:23:11;14.90;98.40
2929;DHT22;1474;51.460;7.150;2024-02-16T14:25:37;14.90;98.40
2929;DHT22;1474;51.460;7.150;2024-02-16T14:28:05;14.90;98.40
2929;DHT22;1474;51.460;7.150;2024-02-16T14:30:31;14.90;98.50
2929;DHT22;1474;51.460;7.150;2024-02-16T14:33:00;14.90;98.50
2929;DHT22;1474;51.460;7.150;2024-02-16T14:35:26;14.90;98.80
2929;DHT22;1474;51.460;7.150;2024-02-16T14:37:55;14.90;98.60
2929;DHT22;1474;51.460;7.150;2024-02-16T14:40:25;14.80;98.70
2929;DHT22;1474;51.460;7.150;2024-02-16T14:42:51;14.80;98.80
2929;DHT22;1474;51.460;7.150;2024-02-16T14:45:17;14.80;98.70
2929;DHT22;1474;51.460;7.150;2024-02-16T14:47:47;14.80;98.80
2929;DHT22;1474;51.460;7.150;2024-02-16T14:50:13;14.80;98.90
2929;DHT22;1474;51.460;7.150;2024-02-16T14:52:39;14.80;98.90
2929;DHT22;1474;51.460;7.150;2024-02-16T14:55:06;14.80;99.00
2929;DHT22;1474;51.460;7.150;2024-02-16T14:57:39;14.70;99.10
2929;DHT22;1474;51.460;7.150;2024-02-16T15:00:06;14.70;99.10
2929;DHT22;1474;51.460;7.150;2024-02-16T15:02:32;14.60;99.40
2929;DHT22;1474;51.460;7.150;2024-02-16T15:04:58;14.60;99.20
2929;DHT22;1474;51.460;7.150;2024-02-16T15:07:25;14.50;99.20
2929;DHT22;1474;51.460;7.150;2024-02-16T15:09:51;14.50;99.30
2929;DHT22;1474;51.460;7.150;2024-02-16T15:12:16;14.50;99.40
2929;DHT22;1474;51.460;7.150;2024-02-16T15:14:47;14.40;99.30
2929;DHT22;1474;51.460;7.150;2024-02-16T15:17:13;14.40;99.30
2929;DHT22;1474;51.460;7.150;2024-02-16T15:19:39;14.40;99.40
2929;DHT22;1474;51.460;7.150;2024-02-16T15:22:05;14.30;99.40
2929;DHT22;1474;51.460;7.150;2024-02-16T15:24:30;14.30;99.40
2929;DHT22;1474;51.460;7.150;2024-02-16T15:26:56;14.20;99.50
2929;DHT22;1474;51.460;7.150;2024-02-16T15:29:21;14.20;99.50
2929;DHT22;1474;51.460;7.150;2024-02-16T15:31:47;14.20;99.50
2929;DHT22;1474;51.460;7.150;2024-02-16T15:34:13;14.20;99.60
2929;DHT22;1474;51.460;7.150;2024-02-16T15:36:39;14.20;99.60
2929;DHT22;1474;51.460;7.150;2024-02-16T15:39:06;14.20;99.70
2929;DHT22;1474;51.460;7.150;2024-02-16T15:41:33;14.20;99.70
2929;DHT22;1474;51.460;7.150;2024-02-16T15:43:58;14.20;99.60
2929;DHT22;1474;51.460;7.150;2024-02-16T15:46:24;14.20;99.60
2929;DHT22;1474;51.460;7.150;2024-02-16T15:48:50;14.20;99.60
2929;DHT22;1474;51.460;7.150;2024-02-16T15:51:17;14.20;99.50
2929;DHT22;1474;51.460;7.150;2024-02-16T15:53:43;14.20;99.40
2929;DHT22;1474;51.460;7.150;2024-02-16T15:56:09;14.20;99.30
2929;DHT22;1474;51.460;7.150;2024-02-16T15:58:35;14.30;99.30
2929;DHT22;1474;51.460;7.150;2024-02-16T16:01:00;14.20;99.00
2929;DHT22;1474;51.460;7.150;2024-02-16T16:03:26;14.20;99.10
2929;DHT22;1474;51.460;7.150;2024-02-16T16:05:52;14.10;99.10
2929;DHT22;1474;51.460;7.150;2024-02-16T16:08:18;14.10;99.20
2929;DHT22;1474;51.460;7.150;2024-02-16T16:10:46;14.10;99.20
2929;DHT22;1474;51.460;7.150;2024-02-16T16:13:14;14.00;99.20
2929;DHT22;1474;51.460;7.150;2024-02-16T16:15:41;14.00;99.30
2929;DHT22;1474;51.460;7.150;2024-02-16T16:18:10;13.90;99.30
2929;DHT22;1474;51.460;7.150;2024-02-16T16:20:35;14.00;99.30
2929;DHT22;1474;51.460;7.150;2024-02-16T16:23:02;14.00;99.20
2929;DHT22;1474;51.460;7.150;2024-02-16T16:25:28;14.00;99.10
2929;DHT22;1474;51.460;7.150;2024-02-16T16:27:53;13.90;99.20
2929;DHT22;1474;51.460;7.150;2024-02-16T16:30:19;13.90;99.20
2929;DHT22;1474;51.460;7.150;2024-02-16T16:32:45;13.80;99.30
2929;DHT22;1474;51.460;7.150;2024-02-16T16:35:10;13.80;99.30
2929;DHT22;1474;51.460;7.150;2024-02-16T16:37:36;13.80;99.30
2929;DHT22;1474;51.460;7.150;2024-02-16T16:40:03;13.90;99.30
2929;DHT22;1474;51.460;7.150;2024-02-16T16:42:28;13.80;99.30
2929;DHT22;1474;51.460;7.150;2024-02-16T16:44:55;13.80;99.20
2929;DHT22;1474;51.460;7.150;2024-02-16T16:47:21;13.80;99.20
2929;DHT22;1474;51.460;7.150;2024-02-16T16:49:47;13.80;99.10
2929;DHT22;1474;51.460;7.150;2024-02-16T16:52:13;13.80;99.10
2929;DHT22;1474;51.460;7.150;2024-02-16T16:54:39;13.70;99.20
2929;DHT22;1474;51.460;7.150;2024-02-16T16:57:06;13.70;99.30
2929;DHT22;1474;51.460;7.150;2024-02-16T16:59:35;13.70;99.30
2929;DHT22;1474;51.460;7.150;2024-02-16T17:02:00;13.60;99.20
2929;DHT22;1474;51.460;7.150;2024-02-16T17:04:33;13.60;99.30
2929;DHT22;1474;51.460;7.150;2024-02-16T17:07:01;13.60;99.30
2929;DHT22;1474;51.460;7.150;2024-02-16T17:09:28;13.60;99.30
2929;DHT22;1474;51.460;7.150;2024-02-16T17:11:54;13.60;99.30
2929;DHT22;1474;51.460;7.150;2024-02-16T17:14:27;13.60;99.30
2929;DHT22;1474;51.460;7.150;2024-02-16T17:16:55;13.70;99.20
2929;DHT22;1474;51.460;7.150;2024-02-16T17:19:21;13.70;99.20
2929;DHT22;1474;51.460;7.150;2024-02-16T17:21:48;13.70;99.10
2929;DHT22;1474;51.460;7.150;2024-02-16T17:24:13;13.70;99.10
2929;DHT22;1474;51.460;7.150;2024-02-16T17:26:39;13.70;99.00
2929;DHT22;1474;51.460;7.150;2024-02-16T17:29:05;13.60;98.90
2929;DHT22;1474;51.460;7.150;2024-02-16T17:31:31;13.60;98.90
2929;DHT22;1474;51.460;7.150;2024-02-16T17:33:56;13.60;99.00
2929;DHT22;1474;51.460;7.150;2024-02-16T17:36:22;13.50;98.90
2929;DHT22;1474;51.460;7.150;2024-02-16T17:38:48;13.50;98.90
2929;DHT22;1474;51.460;7.150;2024-02-16T17:41:13;13.50;98.80
2929;DHT22;1474;51.460;7.150;2024-02-16T17:43:39;13.50;98.70
